createdAt,value
2022-12-27T00:01:29.654Z,13.10
2022-12-27T00:04:01.916Z,12.20
2022-12-27T00:06:33.867Z,11.60
2022-12-27T00:09:07.262Z,14.20
2022-12-27T00:11:40.070Z,15.30
2022-12-27T00:14:13.743Z,14.10
2022-12-27T00:16:45.697Z,12.90
2022-12-27T00:19:17.682Z,20.60
2022-12-27T00:21:49.514Z,12.10
2022-12-27T00:24:21.439Z,16.90
2022-12-27T00:26:53.268Z,11.30
2022-12-27T00:29:25.278Z,7.20
2022-12-27T00:31:57.106Z,10.90
2022-12-27T00:34:28.991Z,9.30
2022-12-27T00:37:00.876Z,11.10
2022-12-27T00:39:32.827Z,12.60
2022-12-27T00:42:04.713Z,13.60
2022-12-27T00:44:36.582Z,11.30
2022-12-27T00:47:08.588Z,11.00
2022-12-27T00:49:40.425Z,12.40
2022-12-27T00:52:12.156Z,11.40
2022-12-27T00:54:44.024Z,12.60
2022-12-27T00:57:15.836Z,12.80
2022-12-27T00:59:48.334Z,11.30
2022-12-27T01:02:20.203Z,10.10
2022-12-27T01:04:53.939Z,14.70
2022-12-27T01:07:25.984Z,11.00
2022-12-27T01:09:57.910Z,11.10
2022-12-27T01:12:29.993Z,13.00
2022-12-27T01:15:01.899Z,9.80
2022-12-27T01:17:33.809Z,10.20
2022-12-27T01:20:13.118Z,13.50
2022-12-27T01:22:44.900Z,10.10
2022-12-27T01:25:16.794Z,12.40
2022-12-27T01:27:48.527Z,10.80
2022-12-27T01:30:20.503Z,9.50
2022-12-27T01:32:52.525Z,8.50
2022-12-27T01:35:24.430Z,9.60
2022-12-27T01:37:56.345Z,9.80
2022-12-27T01:40:32.785Z,11.90
2022-12-27T01:43:04.819Z,10.40
2022-12-27T01:45:38.539Z,10.50
2022-12-27T01:48:15.524Z,12.40
2022-12-27T01:50:51.024Z,12.70
2022-12-27T01:53:25.593Z,7.80
2022-12-27T01:56:00.769Z,6.30
2022-12-27T01:58:37.794Z,10.60
2022-12-27T02:01:14.288Z,7.30
2022-12-27T02:03:48.518Z,9.00
2022-12-27T02:06:23.324Z,13.80
2022-12-27T02:09:03.397Z,10.20
2022-12-27T02:11:52.465Z,12.80
2022-12-27T02:14:29.826Z,12.50
2022-12-27T02:17:04.033Z,7.10
2022-12-27T02:19:47.322Z,12.20
2022-12-27T02:22:53.498Z,12.30
2022-12-27T02:25:36.098Z,9.10
2022-12-27T02:28:27.203Z,8.60
2022-12-27T02:31:05.388Z,12.70
2022-12-27T02:33:43.198Z,5.30
2022-12-27T02:36:20.050Z,13.00
2022-12-27T02:38:56.671Z,10.40
2022-12-27T02:41:47.895Z,11.80
2022-12-27T02:47:36.743Z,10.90
2022-12-27T02:50:28.566Z,8.00
2022-12-27T02:53:08.963Z,12.70
2022-12-27T02:56:35.174Z,10.40
2022-12-27T02:59:19.353Z,11.10
2022-12-27T03:02:18.160Z,11.70
2022-12-27T03:05:07.957Z,11.60
2022-12-27T03:07:44.740Z,8.00
2022-12-27T03:10:45.284Z,7.10
2022-12-27T03:13:45.394Z,8.20
2022-12-27T03:16:24.191Z,9.80
2022-12-27T03:19:04.539Z,15.50
2022-12-27T03:21:56.313Z,7.70
2022-12-27T03:24:49.331Z,7.50
2022-12-27T03:27:28.680Z,11.10
2022-12-27T03:30:27.995Z,13.20
2022-12-27T03:33:16.797Z,18.30
2022-12-27T03:36:07.679Z,11.90
2022-12-27T03:38:48.773Z,8.00
2022-12-27T03:41:54.890Z,11.90
2022-12-27T03:44:27.851Z,7.90
2022-12-27T03:47:01.828Z,9.70
2022-12-27T03:49:38.372Z,9.40
2022-12-27T03:52:16.534Z,8.90
2022-12-27T03:54:51.866Z,12.20
2022-12-27T03:57:25.267Z,7.80
2022-12-27T03:59:57.322Z,10.10
2022-12-27T04:02:29.720Z,6.90
2022-12-27T04:05:01.825Z,9.90
2022-12-27T04:07:33.733Z,12.30
2022-12-27T04:10:23.817Z,7.40
2022-12-27T04:13:13.263Z,14.30
2022-12-27T04:16:02.805Z,9.20
2022-12-27T04:18:52.265Z,7.90
2022-12-27T04:21:42.083Z,15.70
2022-12-27T04:24:33.252Z,7.30
2022-12-27T04:27:22.867Z,11.40
2022-12-27T04:30:13.926Z,11.00
2022-12-27T04:33:03.507Z,10.80
2022-12-27T04:35:35.376Z,13.20
2022-12-27T04:38:07.692Z,11.20
2022-12-27T04:40:56.832Z,15.10
2022-12-27T04:43:46.112Z,9.60
2022-12-27T04:46:40.843Z,8.60
2022-12-27T04:49:36.864Z,9.90
2022-12-27T04:52:32.128Z,7.00
2022-12-27T04:55:14.167Z,9.60
2022-12-27T04:57:46.039Z,10.20
2022-12-27T05:00:37.895Z,9.60
2022-12-27T05:03:12.518Z,8.50
2022-12-27T05:05:46.066Z,8.40
2022-12-27T05:08:49.332Z,10.90
2022-12-27T05:11:38.780Z,7.50
2022-12-27T05:14:14.165Z,9.00
2022-12-27T05:16:46.739Z,12.40
2022-12-27T05:19:18.583Z,13.70
2022-12-27T05:22:04.340Z,14.20
2022-12-27T05:24:54.187Z,10.90
2022-12-27T05:27:26.010Z,10.20
2022-12-27T05:29:57.824Z,9.10
2022-12-27T05:32:29.609Z,6.70
2022-12-27T05:35:01.458Z,13.70
2022-12-27T05:37:33.287Z,12.40
2022-12-27T05:40:11.892Z,13.20
2022-12-27T05:42:43.699Z,15.00
2022-12-27T05:45:15.558Z,15.50
2022-12-27T05:47:47.426Z,18.40
2022-12-27T05:50:26.205Z,25.70
2022-12-27T05:52:58.226Z,25.00
2022-12-27T05:55:30.077Z,17.10
2022-12-27T05:58:02.032Z,15.00
2022-12-27T06:00:33.976Z,12.00
2022-12-27T06:03:06.552Z,22.20
2022-12-27T06:05:38.461Z,14.00
2022-12-27T06:08:11.245Z,16.40
2022-12-27T06:10:43.564Z,14.40
2022-12-27T06:13:15.392Z,19.70
2022-12-27T06:15:47.215Z,21.10
2022-12-27T06:18:19.025Z,16.70
2022-12-27T06:20:50.883Z,14.80
2022-12-27T06:23:22.645Z,13.30
2022-12-27T06:25:54.732Z,18.80
2022-12-27T06:28:26.502Z,16.10
2022-12-27T06:31:00.920Z,16.20
2022-12-27T06:33:32.783Z,14.20
2022-12-27T06:36:08.749Z,17.40
2022-12-27T06:38:41.349Z,23.50
2022-12-27T06:41:17.327Z,14.90
2022-12-27T06:43:50.010Z,15.10
2022-12-27T06:46:24.413Z,14.40
2022-12-27T06:48:56.350Z,20.60
2022-12-27T06:51:28.279Z,16.40
2022-12-27T06:54:00.135Z,15.80
2022-12-27T06:56:31.970Z,12.10
2022-12-27T06:59:03.801Z,12.60
2022-12-27T07:01:35.819Z,12.20
2022-12-27T07:04:08.002Z,10.80
2022-12-27T07:06:40.367Z,10.80
2022-12-27T07:09:12.155Z,13.00
2022-12-27T07:11:43.997Z,14.80
2022-12-27T07:14:15.811Z,10.50
2022-12-27T07:16:49.760Z,11.20
2022-12-27T07:19:21.570Z,13.00
2022-12-27T07:21:53.438Z,14.10
2022-12-27T07:24:25.235Z,10.30
2022-12-27T07:26:57.111Z,13.20
2022-12-27T07:29:29.262Z,12.30
2022-12-27T07:32:01.178Z,16.20
2022-12-27T07:34:33.007Z,16.50
2022-12-27T07:37:04.986Z,9.70
2022-12-27T07:39:36.777Z,8.40
2022-12-27T07:42:09.137Z,10.20
2022-12-27T07:44:41.012Z,8.90
2022-12-27T07:47:13.843Z,12.60
2022-12-27T07:49:45.713Z,18.00
2022-12-27T07:52:17.545Z,14.90
2022-12-27T07:54:49.369Z,12.40
2022-12-27T07:57:21.221Z,11.20
2022-12-27T07:59:53.018Z,17.10
2022-12-27T08:02:24.968Z,14.40
2022-12-27T08:04:57.185Z,14.40
2022-12-27T08:07:29.002Z,15.20
2022-12-27T08:10:00.952Z,16.40
2022-12-27T08:12:33.038Z,14.70
2022-12-27T08:15:05.032Z,17.60
2022-12-27T08:17:36.938Z,11.90
2022-12-27T08:20:11.611Z,11.90
2022-12-27T08:22:45.317Z,15.40
2022-12-27T08:25:17.253Z,14.90
2022-12-27T08:27:49.098Z,9.90
2022-12-27T08:30:22.949Z,15.60
2022-12-27T08:32:56.292Z,12.30
2022-12-27T08:35:54.842Z,12.20
2022-12-27T08:38:20.486Z,11.40
2022-12-27T08:40:52.229Z,7.50
2022-12-27T08:43:24.112Z,7.10
2022-12-27T08:46:00.832Z,12.00
2022-12-27T08:48:33.818Z,10.70
2022-12-27T08:51:13.708Z,11.30
2022-12-27T08:53:49.833Z,10.60
2022-12-27T08:56:21.618Z,7.30
2022-12-27T08:58:53.484Z,7.80
2022-12-27T09:01:26.447Z,8.10
2022-12-27T09:03:58.681Z,9.30
2022-12-27T09:06:30.486Z,8.30
2022-12-27T09:09:02.256Z,12.30
2022-12-27T09:11:35.960Z,8.90
2022-12-27T09:14:08.114Z,7.60
2022-12-27T09:16:40.564Z,11.30
2022-12-27T09:19:12.882Z,6.90
2022-12-27T09:21:45.090Z,11.20
2022-12-27T09:24:17.092Z,8.00
2022-12-27T09:26:49.149Z,11.20
2022-12-27T09:29:22.436Z,8.60
2022-12-27T09:31:54.230Z,11.90
2022-12-27T09:34:26.229Z,8.90
2022-12-27T09:36:58.023Z,11.20
2022-12-27T09:39:30.035Z,9.60
2022-12-27T09:45:14.680Z,9.00
2022-12-27T09:47:53.618Z,11.00
2022-12-27T09:50:39.754Z,12.80
2022-12-27T09:53:18.058Z,9.40
2022-12-27T09:55:53.106Z,8.20
2022-12-27T09:58:38.250Z,10.00
2022-12-27T10:01:22.931Z,6.60
2022-12-27T10:03:55.249Z,15.00
2022-12-27T10:06:48.940Z,9.30
2022-12-27T10:09:37.034Z,10.60
2022-12-27T10:12:23.342Z,7.90
2022-12-27T10:15:09.745Z,8.60
2022-12-27T10:17:56.221Z,8.40
2022-12-27T10:20:37.243Z,10.20
2022-12-27T10:23:15.677Z,8.60
2022-12-27T10:25:48.112Z,8.50
2022-12-27T10:28:25.677Z,14.20
2022-12-27T10:31:02.718Z,11.00
2022-12-27T10:33:36.908Z,10.90
2022-12-27T10:36:13.922Z,10.60
2022-12-27T10:38:46.169Z,12.60
2022-12-27T10:41:31.134Z,10.80
2022-12-27T10:44:03.001Z,10.40
2022-12-27T10:46:35.550Z,13.30
2022-12-27T10:49:24.748Z,9.00
2022-12-27T10:51:59.567Z,11.80
2022-12-27T10:54:32.817Z,9.60
2022-12-27T10:57:28.436Z,10.10
2022-12-27T11:00:19.045Z,12.00
2022-12-27T11:02:55.541Z,11.90
2022-12-27T11:05:30.006Z,10.80
2022-12-27T11:08:19.661Z,8.90
2022-12-27T11:10:53.898Z,9.90
2022-12-27T11:13:25.748Z,10.00
2022-12-27T11:15:59.283Z,11.30
2022-12-27T11:18:45.533Z,12.60
2022-12-27T11:21:27.292Z,10.20
2022-12-27T11:24:02.804Z,11.20
2022-12-27T11:26:41.397Z,8.90
2022-12-27T11:29:21.250Z,10.00
2022-12-27T11:31:55.021Z,11.80
2022-12-27T11:34:32.099Z,9.90
2022-12-27T11:37:13.313Z,9.90
2022-12-27T11:42:23.335Z,11.70
2022-12-27T11:45:04.980Z,14.00
2022-12-27T11:47:44.922Z,15.70
2022-12-27T11:50:52.193Z,13.10
2022-12-27T11:53:56.174Z,10.60
2022-12-27T11:56:30.709Z,10.20
2022-12-27T11:59:26.981Z,13.20
2022-12-27T12:02:37.823Z,12.80
2022-12-27T12:05:43.304Z,8.80
2022-12-27T12:08:34.704Z,8.80
2022-12-27T12:11:16.624Z,10.10
2022-12-27T12:14:14.890Z,9.50
2022-12-27T12:17:02.998Z,11.00
2022-12-27T12:19:56.280Z,10.20
2022-12-27T12:22:44.748Z,10.00
2022-12-27T12:25:45.211Z,9.70
2022-12-27T12:28:59.643Z,10.60
2022-12-27T12:31:46.070Z,8.70
2022-12-27T12:34:33.790Z,10.20
2022-12-27T12:37:20.034Z,9.60
2022-12-27T12:40:13.623Z,15.10
2022-12-27T12:42:58.989Z,10.10
2022-12-27T12:45:49.658Z,12.90
2022-12-27T12:48:36.059Z,9.00
2022-12-27T12:51:30.714Z,7.70
2022-12-27T12:54:16.978Z,7.70
2022-12-27T12:57:02.861Z,14.30
2022-12-27T12:59:54.030Z,10.00
2022-12-27T13:05:24.915Z,13.50
2022-12-27T13:08:12.073Z,10.80
2022-12-27T13:11:23.198Z,8.80
2022-12-27T13:14:12.887Z,8.00
2022-12-27T13:16:52.450Z,8.60
2022-12-27T13:19:42.967Z,17.80
2022-12-27T13:22:23.620Z,10.00
2022-12-27T13:25:17.200Z,9.70
2022-12-27T13:28:00.669Z,9.20
2022-12-27T13:30:47.604Z,11.90
2022-12-27T13:33:31.824Z,8.20
2022-12-27T13:36:18.637Z,9.10
2022-12-27T13:39:28.874Z,8.50
2022-12-27T13:42:25.079Z,7.80
2022-12-27T13:45:11.146Z,11.80
2022-12-27T13:48:02.889Z,12.60
2022-12-27T13:51:00.096Z,7.10
2022-12-27T13:54:06.533Z,8.10
2022-12-27T13:56:54.847Z,10.80
2022-12-27T13:59:51.233Z,14.10
2022-12-27T14:03:02.174Z,11.80
2022-12-27T14:06:11.431Z,11.30
2022-12-27T14:09:15.676Z,11.90
2022-12-27T14:12:05.771Z,9.80
2022-12-27T14:14:41.434Z,12.40
2022-12-27T14:17:25.411Z,9.30
2022-12-27T14:20:36.122Z,12.00
2022-12-27T14:23:29.223Z,14.00
2022-12-27T14:26:25.630Z,11.50
2022-12-27T14:29:27.174Z,10.30
2022-12-27T14:32:44.987Z,11.40
2022-12-27T14:35:33.449Z,11.60
2022-12-27T14:38:34.306Z,11.10
2022-12-27T14:41:55.909Z,12.70
2022-12-27T14:45:04.946Z,14.50
2022-12-27T14:48:21.752Z,9.80
2022-12-27T14:52:00.012Z,10.20
2022-12-27T14:55:24.310Z,14.80
2022-12-27T14:58:14.921Z,10.10
2022-12-27T15:01:04.375Z,8.90
2022-12-27T15:04:00.706Z,11.30
2022-12-27T15:07:23.998Z,11.50
2022-12-27T15:10:33.849Z,12.40
2022-12-27T15:13:14.528Z,12.00
2022-12-27T15:16:01.947Z,14.40
2022-12-27T15:18:44.614Z,12.60
2022-12-27T15:21:42.072Z,11.90
2022-12-27T15:24:27.023Z,16.60
2022-12-27T15:27:07.173Z,19.30
2022-12-27T15:29:52.507Z,16.60
2022-12-27T15:32:35.609Z,25.20
2022-12-27T15:35:28.603Z,20.90
2022-12-27T15:38:10.747Z,21.90
2022-12-27T15:40:57.557Z,19.50
2022-12-27T15:43:49.202Z,18.40
2022-12-27T15:46:42.012Z,17.80
2022-12-27T15:49:29.801Z,11.50
2022-12-27T15:52:12.338Z,12.70
2022-12-27T15:55:21.675Z,14.40
2022-12-27T15:58:08.677Z,11.00
2022-12-27T16:00:42.862Z,9.90
2022-12-27T16:03:34.157Z,10.40
2022-12-27T16:08:43.312Z,10.70
2022-12-27T16:11:17.801Z,8.80
2022-12-27T16:13:52.110Z,11.10
2022-12-27T16:16:57.556Z,18.00
2022-12-27T16:19:52.690Z,19.80
2022-12-27T16:22:36.389Z,17.40
2022-12-27T16:25:34.236Z,22.10
2022-12-27T16:28:11.079Z,17.30
2022-12-27T16:30:47.835Z,17.90
2022-12-27T16:33:40.977Z,17.40
2022-12-27T16:36:25.903Z,19.60
2022-12-27T16:39:18.703Z,19.20
2022-12-27T16:42:08.383Z,19.20
2022-12-27T16:45:02.754Z,16.90
2022-12-27T16:47:49.366Z,16.50
2022-12-27T16:50:41.008Z,16.40
2022-12-27T16:53:26.639Z,16.00
2022-12-27T16:56:16.134Z,23.90
2022-12-27T16:58:48.467Z,28.00
2022-12-27T17:01:56.164Z,30.30
2022-12-27T17:04:58.337Z,21.30
2022-12-27T17:08:10.691Z,23.50
2022-12-27T17:11:02.339Z,23.80
2022-12-27T17:13:42.883Z,23.90
2022-12-27T17:16:22.018Z,23.60
2022-12-27T17:18:58.028Z,21.10
2022-12-27T17:21:32.864Z,23.80
2022-12-27T17:24:11.576Z,17.80
2022-12-27T17:26:58.245Z,19.40
2022-12-27T17:29:48.256Z,21.60
2022-12-27T17:32:37.212Z,25.20
2022-12-27T17:35:16.902Z,19.10
2022-12-27T17:38:11.588Z,20.20
2022-12-27T17:40:54.543Z,21.90
2022-12-27T17:44:05.062Z,21.60
2022-12-27T17:46:47.870Z,19.40
2022-12-27T17:49:26.413Z,18.10
2022-12-27T17:52:16.112Z,17.70
2022-12-27T17:55:05.275Z,17.90
2022-12-27T17:57:55.477Z,19.20
2022-12-27T18:00:41.413Z,20.10
2022-12-27T18:03:16.056Z,17.20
2022-12-27T18:05:49.770Z,19.50
2022-12-27T18:08:28.341Z,23.20
2022-12-27T18:11:01.876Z,20.80
2022-12-27T18:13:36.339Z,21.80
2022-12-27T18:16:16.492Z,24.60
2022-12-27T18:18:51.364Z,26.50
2022-12-27T18:21:27.354Z,25.40
2022-12-27T18:23:59.531Z,23.10
2022-12-27T18:26:42.123Z,26.80
2022-12-27T18:29:14.285Z,19.80
2022-12-27T18:31:50.709Z,16.00
2022-12-27T18:34:29.324Z,15.50
2022-12-27T18:37:04.461Z,20.80
2022-12-27T18:39:39.862Z,22.30
2022-12-27T18:42:21.228Z,15.70
2022-12-27T18:44:56.152Z,16.90
2022-12-27T18:47:29.449Z,14.40
2022-12-27T18:50:03.391Z,14.70
2022-12-27T18:52:38.553Z,15.40
2022-12-27T18:55:18.691Z,14.10
2022-12-27T18:57:50.731Z,20.00
2022-12-27T19:00:35.554Z,20.80
2022-12-27T19:03:23.885Z,22.00
2022-12-27T19:06:06.257Z,16.30
2022-12-27T19:08:40.661Z,25.20
2022-12-27T19:11:22.400Z,29.10
2022-12-27T19:13:57.919Z,31.40
2022-12-27T19:16:31.314Z,30.70
2022-12-27T19:19:09.155Z,27.10
2022-12-27T19:21:42.036Z,28.40
2022-12-27T19:24:34.340Z,24.70
2022-12-27T19:27:23.322Z,30.10
2022-12-27T19:29:55.690Z,42.20
2022-12-27T19:32:33.367Z,36.20
2022-12-27T19:35:06.679Z,29.40
2022-12-27T19:37:38.470Z,27.70
2022-12-27T19:40:29.549Z,24.20
2022-12-27T19:43:04.809Z,23.80
2022-12-27T19:45:36.658Z,24.70
2022-12-27T19:48:09.597Z,26.20
2022-12-27T19:50:44.342Z,26.70
2022-12-27T19:53:19.106Z,26.90
2022-12-27T19:55:52.395Z,28.40
2022-12-27T19:58:26.082Z,25.70
2022-12-27T20:00:58.365Z,27.40
2022-12-27T20:03:30.888Z,27.00
2022-12-27T20:06:13.879Z,30.90
2022-12-27T20:08:53.134Z,22.90
2022-12-27T20:11:27.761Z,27.20
2022-12-27T20:14:00.202Z,27.40
2022-12-27T20:16:32.048Z,26.40
2022-12-27T20:19:04.080Z,26.10
2022-12-27T20:21:36.260Z,26.20
2022-12-27T20:24:11.201Z,24.90
2022-12-27T20:26:44.677Z,20.90
2022-12-27T20:29:16.627Z,19.30
2022-12-27T20:31:50.176Z,22.60
2022-12-27T20:34:22.301Z,31.60
2022-12-27T20:36:55.496Z,26.10
2022-12-27T20:39:27.601Z,24.40
2022-12-27T20:41:59.916Z,19.90
2022-12-27T20:44:32.446Z,23.40
2022-12-27T20:47:04.411Z,21.80
2022-12-27T20:49:36.455Z,25.10
2022-12-27T20:52:08.512Z,27.80
2022-12-27T20:54:40.350Z,23.80
2022-12-27T20:57:12.627Z,26.30
2022-12-27T20:59:44.742Z,28.30
2022-12-27T21:02:16.986Z,31.30
2022-12-27T21:04:48.931Z,35.60
2022-12-27T21:07:20.780Z,23.00
2022-12-27T21:09:53.105Z,23.80
2022-12-27T21:12:25.047Z,23.60
2022-12-27T21:14:57.022Z,16.80
2022-12-27T21:17:28.871Z,17.50
2022-12-27T21:20:00.732Z,16.40
2022-12-27T21:22:32.616Z,11.50
2022-12-27T21:25:04.493Z,18.30
2022-12-27T21:27:36.578Z,16.80
2022-12-27T21:30:16.394Z,13.50
2022-12-27T21:32:48.571Z,15.70
2022-12-27T21:35:20.474Z,14.00
2022-12-27T21:37:52.280Z,15.90
2022-12-27T21:40:29.836Z,16.00
2022-12-27T21:43:01.627Z,26.00
2022-12-27T21:45:33.589Z,19.70
2022-12-27T21:48:05.580Z,23.50
2022-12-27T21:50:37.606Z,26.10
2022-12-27T21:53:09.651Z,36.30
2022-12-27T21:55:41.688Z,39.80
2022-12-27T21:58:13.781Z,39.50
2022-12-27T22:00:45.600Z,37.90
2022-12-27T22:03:17.709Z,31.00
2022-12-27T22:05:49.669Z,28.30
2022-12-27T22:08:21.569Z,25.50
2022-12-27T22:10:58.492Z,21.30
2022-12-27T22:13:30.293Z,21.40
2022-12-27T22:16:03.642Z,22.80
2022-12-27T22:18:36.764Z,28.30
2022-12-27T22:21:09.867Z,23.20
2022-12-27T22:23:43.821Z,19.40
2022-12-27T22:26:17.869Z,16.70
2022-12-27T22:28:50.511Z,24.70
2022-12-27T22:31:24.636Z,18.60
2022-12-27T22:33:56.857Z,16.30
2022-12-27T22:36:28.976Z,18.50
2022-12-27T22:39:01.733Z,16.90
2022-12-27T22:41:35.291Z,19.00
2022-12-27T22:44:11.091Z,20.80
2022-12-27T22:47:23.785Z,16.30
2022-12-27T22:49:35.805Z,19.10
2022-12-27T22:52:07.699Z,20.80
2022-12-27T22:55:05.554Z,22.30
2022-12-27T22:57:31.294Z,25.80
2022-12-27T23:00:03.162Z,20.00
2022-12-27T23:02:35.765Z,20.50
2022-12-27T23:05:10.681Z,25.10
2022-12-27T23:08:04.154Z,25.00
2022-12-27T23:10:34.318Z,18.70
2022-12-27T23:13:06.108Z,22.50
2022-12-27T23:15:38.036Z,25.30
2022-12-27T23:18:09.905Z,24.40
2022-12-27T23:21:21.251Z,23.70
2022-12-27T23:23:34.596Z,20.80
2022-12-27T23:26:09.408Z,24.50
2022-12-27T23:28:42.570Z,23.80
2022-12-27T23:31:15.229Z,25.30
2022-12-27T23:33:47.809Z,25.50
2022-12-27T23:36:20.196Z,21.00
2022-12-27T23:38:52.605Z,23.80
2022-12-27T23:41:25.754Z,17.80
2022-12-27T23:44:00.488Z,20.60
2022-12-27T23:46:34.615Z,24.70
2022-12-27T23:49:06.609Z,23.50
2022-12-27T23:51:38.413Z,22.20
2022-12-27T23:54:10.317Z,27.40
2022-12-27T23:56:42.194Z,22.50
2022-12-27T23:59:14.031Z,24.10
